createdAt,value
2023-09-11T00:00:09.794Z,25.06
2023-09-11T00:02:36.626Z,24.97
2023-09-11T00:05:03.601Z,24.75
2023-09-11T00:07:30.204Z,24.74
2023-09-11T00:09:56.740Z,24.77
2023-09-11T00:12:23.351Z,24.74
2023-09-11T00:14:50.017Z,24.76
2023-09-11T00:17:16.657Z,24.76
2023-09-11T00:19:43.238Z,24.75
2023-09-11T00:22:09.732Z,24.89
2023-09-11T00:24:36.252Z,24.76
2023-09-11T00:27:02.898Z,24.84
2023-09-11T00:29:29.532Z,24.67
2023-09-11T00:31:56.165Z,24.78
2023-09-11T00:34:23.033Z,24.93
2023-09-11T00:36:49.521Z,24.98
2023-09-11T00:39:16.050Z,24.92
2023-09-11T00:41:44.214Z,24.94
2023-09-11T00:44:10.976Z,24.80
2023-09-11T00:46:37.780Z,24.87
2023-09-11T00:49:04.488Z,24.78
2023-09-11T00:51:31.186Z,24.87
2023-09-11T00:53:57.809Z,24.42
2023-09-11T00:56:24.527Z,24.54
2023-09-11T00:58:51.732Z,24.36
2023-09-11T01:01:19.994Z,24.45
2023-09-11T01:03:47.449Z,24.54
2023-09-11T01:06:14.149Z,24.50
2023-09-11T01:08:41.153Z,24.21
2023-09-11T01:11:07.883Z,24.42
2023-09-11T01:13:34.857Z,24.33
2023-09-11T01:16:23.813Z,24.42
2023-09-11T01:19:13.644Z,24.38
2023-09-11T01:22:09.428Z,24.23
2023-09-11T01:25:03.979Z,24.44
2023-09-11T01:27:49.323Z,24.37
2023-09-11T01:30:16.569Z,24.33
2023-09-11T01:32:44.265Z,24.22
2023-09-11T01:35:10.882Z,24.29
2023-09-11T01:37:37.387Z,24.22
2023-09-11T01:40:05.423Z,24.33
2023-09-11T01:42:37.453Z,24.19
2023-09-11T01:45:06.220Z,23.94
2023-09-11T01:47:34.508Z,24.14
2023-09-11T01:50:02.728Z,24.04
2023-09-11T01:52:30.683Z,24.03
2023-09-11T01:54:58.688Z,24.04
2023-09-11T01:57:30.643Z,23.86
2023-09-11T01:59:57.234Z,23.95
2023-09-11T02:02:23.804Z,23.98
2023-09-11T02:04:51.058Z,24.08
2023-09-11T02:07:17.581Z,24.32
2023-09-11T02:09:44.191Z,24.50
2023-09-11T02:12:10.693Z,24.59
2023-09-11T02:14:37.222Z,24.58
2023-09-11T02:17:04.233Z,24.44
2023-09-11T02:19:32.414Z,24.40
2023-09-11T02:21:59.298Z,24.10
2023-09-11T02:24:25.887Z,24.06
2023-09-11T02:26:52.606Z,24.13
2023-09-11T02:29:19.233Z,23.86
2023-09-11T02:31:45.869Z,23.50
2023-09-11T02:34:12.435Z,23.55
2023-09-11T02:36:38.981Z,23.45
2023-09-11T02:39:05.570Z,23.64
2023-09-11T02:41:32.125Z,23.71
2023-09-11T02:43:58.646Z,23.75
2023-09-11T02:46:25.120Z,23.82
2023-09-11T02:48:51.595Z,23.88
2023-09-11T02:51:18.771Z,23.92
2023-09-11T02:53:45.616Z,23.81
2023-09-11T02:56:12.196Z,23.80
2023-09-11T02:58:38.782Z,23.75
2023-09-11T03:01:05.891Z,23.67
2023-09-11T03:03:32.649Z,23.65
2023-09-11T03:06:01.513Z,23.57
2023-09-11T03:08:28.920Z,23.60
2023-09-11T03:10:55.891Z,23.73
2023-09-11T03:13:22.385Z,23.75
2023-09-11T03:15:48.918Z,23.85
2023-09-11T03:18:15.599Z,23.55
2023-09-11T03:20:42.268Z,23.73
2023-09-11T03:23:08.847Z,23.62
2023-09-11T03:25:39.134Z,23.73
2023-09-11T03:28:05.726Z,23.54
2023-09-11T03:30:32.223Z,23.54
2023-09-11T03:32:58.839Z,23.38
2023-09-11T03:35:25.546Z,23.44
2023-09-11T03:37:52.640Z,23.73
2023-09-11T03:40:21.507Z,23.43
2023-09-11T03:42:48.419Z,23.46
2023-09-11T03:45:15.277Z,23.16
2023-09-11T03:47:42.079Z,23.16
2023-09-11T03:50:09.051Z,23.12
2023-09-11T03:52:35.586Z,22.95
2023-09-11T03:55:02.103Z,22.73
2023-09-11T03:57:28.925Z,22.55
2023-09-11T03:59:55.595Z,22.86
2023-09-11T04:02:22.165Z,22.82
2023-09-11T04:04:48.733Z,22.94
2023-09-11T04:07:15.311Z,22.74
2023-09-11T04:09:41.818Z,22.51
2023-09-11T04:12:08.560Z,22.46
2023-09-11T04:14:38.598Z,22.48
2023-09-11T04:17:05.186Z,22.45
2023-09-11T04:19:31.685Z,22.41
2023-09-11T04:21:58.186Z,22.32
2023-09-11T04:24:24.715Z,22.20
2023-09-11T04:26:51.256Z,22.29
2023-09-11T04:29:17.972Z,22.16
2023-09-11T04:31:44.511Z,22.32
2023-09-11T04:34:11.106Z,22.08
2023-09-11T04:36:38.134Z,22.08
2023-09-11T04:39:07.606Z,22.23
2023-09-11T04:41:34.141Z,22.26
2023-09-11T04:44:00.959Z,22.34
2023-09-11T04:46:27.568Z,22.18
2023-09-11T04:48:54.296Z,22.22
2023-09-11T04:51:20.868Z,22.16
2023-09-11T04:53:47.406Z,22.33
2023-09-11T04:56:13.974Z,22.52
2023-09-11T04:58:40.648Z,22.49
2023-09-11T05:01:09.578Z,22.28
2023-09-11T05:03:36.167Z,22.39
2023-09-11T05:06:02.872Z,22.47
2023-09-11T05:08:36.236Z,22.61
2023-09-11T05:11:15.887Z,22.79
2023-09-11T05:13:42.374Z,22.48
2023-09-11T05:16:08.963Z,22.45
2023-09-11T05:18:35.524Z,22.45
2023-09-11T05:21:02.213Z,22.78
2023-09-11T05:23:28.825Z,22.75
2023-09-11T05:25:55.340Z,22.56
2023-09-11T05:28:21.821Z,22.64
2023-09-11T05:30:50.782Z,22.64
2023-09-11T05:33:17.349Z,22.65
2023-09-11T05:35:47.088Z,22.58
2023-09-11T05:38:13.729Z,22.59
2023-09-11T05:40:40.307Z,22.51
2023-09-11T05:43:06.868Z,22.39
2023-09-11T05:45:33.370Z,22.51
2023-09-11T05:47:59.937Z,22.50
2023-09-11T05:50:26.616Z,22.41
2023-09-11T05:52:55.749Z,22.66
2023-09-11T05:55:22.273Z,23.06
2023-09-11T05:57:49.038Z,23.01
2023-09-11T06:00:15.742Z,23.28
2023-09-11T06:02:46.397Z,23.70
2023-09-11T06:05:14.861Z,23.75
2023-09-11T06:07:41.512Z,24.02
2023-09-11T06:10:08.442Z,24.20
2023-09-11T06:12:34.934Z,24.22
2023-09-11T06:15:01.486Z,24.12
2023-09-11T06:17:38.281Z,24.27
2023-09-11T06:20:12.275Z,24.71
2023-09-11T06:22:39.121Z,24.97
2023-09-11T06:25:06.144Z,24.94
2023-09-11T06:27:32.811Z,25.09
2023-09-11T06:29:59.431Z,24.62
2023-09-11T06:32:26.255Z,24.93
2023-09-11T06:34:53.096Z,25.40
2023-09-11T06:37:19.699Z,25.96
2023-09-11T06:39:46.286Z,26.01
2023-09-11T06:42:22.894Z,26.16
2023-09-11T06:44:51.623Z,26.13
2023-09-11T06:47:18.865Z,26.46
2023-09-11T06:49:45.427Z,26.83
2023-09-11T06:52:11.983Z,27.23
2023-09-11T06:54:38.477Z,26.97
2023-09-11T06:57:05.995Z,27.65
2023-09-11T06:59:32.683Z,27.54
2023-09-11T07:01:59.269Z,27.88
2023-09-11T07:04:26.071Z,28.16
2023-09-11T07:06:52.784Z,28.80
2023-09-11T07:09:19.300Z,29.10
2023-09-11T07:11:45.840Z,29.51
2023-09-11T07:14:19.327Z,28.67
2023-09-11T07:16:46.069Z,29.00
2023-09-11T07:19:12.803Z,29.19
2023-09-11T07:21:39.482Z,29.77
2023-09-11T07:24:06.372Z,29.66
2023-09-11T07:26:33.024Z,30.12
2023-09-11T07:29:03.931Z,29.99
2023-09-11T07:31:34.409Z,30.24
2023-09-11T07:34:01.214Z,30.87
2023-09-11T07:36:29.532Z,31.14
2023-09-11T07:38:56.221Z,31.30
2023-09-11T07:41:23.295Z,31.52
2023-09-11T07:43:51.024Z,31.91
2023-09-11T07:46:25.820Z,32.26
2023-09-11T07:48:52.492Z,32.59
2023-09-11T07:51:19.221Z,32.70
2023-09-11T07:53:46.007Z,33.09
2023-09-11T07:56:14.384Z,33.16
2023-09-11T07:58:42.119Z,32.49
2023-09-11T08:01:09.044Z,32.66
2023-09-11T08:03:36.563Z,33.51
2023-09-11T08:06:06.531Z,33.91
2023-09-11T08:08:33.489Z,34.71
2023-09-11T08:11:00.549Z,35.34
2023-09-11T08:13:27.156Z,35.93
2023-09-11T08:15:54.313Z,36.50
2023-09-11T08:18:21.073Z,36.98
2023-09-11T08:20:47.875Z,36.58
2023-09-11T08:23:14.819Z,36.77
2023-09-11T08:25:41.365Z,37.44
2023-09-11T08:28:08.848Z,37.41
2023-09-11T08:30:36.237Z,37.77
2023-09-11T08:33:04.453Z,38.02
2023-09-11T08:35:32.351Z,38.20
2023-09-11T08:37:58.925Z,38.76
2023-09-11T08:40:32.102Z,38.76
2023-09-11T08:42:59.690Z,37.63
2023-09-11T08:45:29.474Z,38.59
2023-09-11T08:47:57.486Z,38.18
2023-09-11T08:50:31.873Z,38.50
2023-09-11T08:53:02.324Z,37.51
2023-09-11T08:55:31.169Z,38.48
2023-09-11T08:58:03.990Z,38.93
2023-09-11T09:00:32.750Z,39.71
2023-09-11T09:03:03.615Z,39.40
2023-09-11T09:05:33.665Z,40.43
2023-09-11T09:08:02.647Z,40.67
2023-09-11T09:10:29.122Z,41.53
2023-09-11T09:12:55.818Z,41.39
2023-09-11T09:15:22.900Z,41.88
2023-09-11T09:17:49.878Z,41.50
2023-09-11T09:20:18.660Z,42.54
2023-09-11T09:22:59.409Z,42.48
2023-09-11T09:25:26.878Z,41.29
2023-09-11T09:27:54.413Z,41.82
2023-09-11T09:30:23.056Z,42.43
2023-09-11T09:32:51.173Z,43.68
2023-09-11T09:35:23.127Z,43.98
2023-09-11T09:37:58.208Z,43.27
2023-09-11T09:40:43.135Z,43.61
2023-09-11T09:43:17.733Z,43.44
2023-09-11T09:45:44.472Z,42.77
2023-09-11T09:48:13.350Z,43.05
2023-09-11T09:50:51.398Z,44.17
2023-09-11T09:53:23.011Z,43.42
2023-09-11T09:55:49.702Z,42.03
2023-09-11T09:58:16.360Z,42.74
2023-09-11T10:00:42.978Z,44.00
2023-09-11T10:03:12.828Z,43.70
2023-09-11T10:05:41.500Z,44.37
2023-09-11T10:08:08.973Z,44.78
2023-09-11T10:10:37.145Z,44.59
2023-09-11T10:13:08.261Z,45.12
2023-09-11T10:15:39.670Z,45.12
2023-09-11T10:18:06.856Z,45.73
2023-09-11T10:20:33.915Z,46.40
2023-09-11T10:23:04.213Z,44.89
2023-09-11T10:25:46.408Z,44.77
2023-09-11T10:28:28.801Z,44.21
2023-09-11T10:31:29.582Z,44.55
2023-09-11T10:33:58.435Z,45.04
2023-09-11T10:36:32.867Z,44.83
2023-09-11T10:39:02.396Z,44.65
2023-09-11T10:41:29.540Z,44.32
2023-09-11T10:43:56.113Z,44.43
2023-09-11T10:46:22.600Z,45.49
2023-09-11T10:48:51.677Z,45.43
2023-09-11T10:51:18.751Z,45.69
2023-09-11T10:53:49.086Z,45.10
2023-09-11T10:56:16.968Z,44.33
2023-09-11T10:58:44.016Z,44.81
2023-09-11T11:01:14.587Z,45.00
2023-09-11T11:03:42.781Z,44.55
2023-09-11T11:06:14.238Z,44.15
2023-09-11T11:08:42.005Z,44.51
2023-09-11T11:11:23.633Z,44.83
2023-09-11T11:14:16.576Z,44.56
2023-09-11T11:16:56.027Z,45.59
2023-09-11T11:20:01.470Z,46.73
2023-09-11T11:22:35.745Z,44.81
2023-09-11T11:25:06.956Z,45.95
2023-09-11T11:27:33.661Z,44.81
2023-09-11T11:30:01.022Z,45.09
2023-09-11T11:32:31.519Z,44.68
2023-09-11T11:35:02.690Z,46.41
2023-09-11T11:37:32.607Z,46.65
2023-09-11T11:40:01.610Z,46.88
2023-09-11T11:42:28.691Z,46.94
2023-09-11T11:44:56.012Z,46.36
2023-09-11T11:47:23.132Z,45.64
2023-09-11T11:49:50.899Z,45.24
2023-09-11T11:52:17.580Z,45.95
2023-09-11T11:54:44.128Z,46.68
2023-09-11T11:57:10.747Z,46.74
2023-09-11T11:59:39.879Z,42.96
2023-09-11T12:02:19.223Z,44.61
2023-09-11T12:04:49.824Z,46.29
2023-09-11T12:07:17.009Z,43.83
2023-09-11T12:09:43.650Z,44.85
2023-09-11T12:12:10.680Z,45.79
2023-09-11T12:14:37.992Z,44.46
2023-09-11T12:17:14.177Z,45.57
2023-09-11T12:19:40.762Z,44.10
2023-09-11T12:22:09.921Z,45.66
2023-09-11T12:24:36.902Z,46.58
2023-09-11T12:27:06.310Z,46.18
2023-09-11T12:29:33.860Z,45.64
2023-09-11T12:32:00.704Z,45.04
2023-09-11T12:34:42.909Z,44.13
2023-09-11T12:37:09.614Z,43.18
2023-09-11T12:39:36.116Z,43.19
2023-09-11T12:42:02.691Z,43.59
2023-09-11T12:44:29.245Z,44.19
2023-09-11T12:46:56.000Z,44.91
2023-09-11T12:49:22.680Z,44.58
2023-09-11T12:51:49.385Z,44.98
2023-09-11T12:54:16.481Z,44.73
2023-09-11T12:56:43.421Z,44.72
2023-09-11T12:59:11.290Z,45.42
2023-09-11T13:01:37.829Z,46.08
2023-09-11T13:04:07.153Z,45.36
2023-09-11T13:06:33.915Z,45.13
2023-09-11T13:09:00.542Z,42.73
2023-09-11T13:11:27.126Z,43.17
2023-09-11T13:14:12.471Z,42.86
2023-09-11T13:16:41.490Z,42.54
2023-09-11T13:19:08.105Z,42.67
2023-09-11T13:21:34.651Z,41.04
2023-09-11T13:24:01.655Z,42.33
2023-09-11T13:26:28.710Z,42.60
2023-09-11T13:28:55.259Z,42.80
2023-09-11T13:31:21.751Z,43.55
2023-09-11T13:33:48.321Z,42.11
2023-09-11T13:36:15.012Z,42.96
2023-09-11T13:38:41.880Z,42.94
2023-09-11T13:41:08.723Z,42.77
2023-09-11T13:43:35.224Z,42.89
2023-09-11T13:46:01.789Z,43.71
2023-09-11T13:48:28.719Z,43.49
2023-09-11T13:50:55.607Z,43.27
2023-09-11T13:53:22.173Z,42.58
2023-09-11T13:55:48.764Z,41.40
2023-09-11T13:58:15.276Z,42.01
2023-09-11T14:00:41.822Z,42.34
2023-09-11T14:03:08.552Z,42.31
2023-09-11T14:05:45.124Z,40.80
2023-09-11T14:08:12.231Z,41.16
2023-09-11T14:10:38.823Z,41.99
2023-09-11T14:13:05.461Z,41.96
2023-09-11T14:15:32.054Z,40.79
2023-09-11T14:17:58.759Z,41.34
2023-09-11T14:20:25.333Z,41.56
2023-09-11T14:22:51.913Z,40.23
2023-09-11T14:25:19.391Z,40.38
2023-09-11T14:27:46.263Z,40.04
2023-09-11T14:30:13.334Z,39.85
2023-09-11T14:32:41.383Z,39.33
2023-09-11T14:35:08.433Z,38.47
2023-09-11T14:37:35.030Z,38.22
2023-09-11T14:40:01.529Z,38.24
2023-09-11T14:42:28.106Z,38.10
2023-09-11T14:44:54.642Z,37.95
2023-09-11T14:47:21.200Z,38.35
2023-09-11T14:49:48.478Z,37.86
2023-09-11T14:52:15.015Z,37.94
2023-09-11T14:54:51.840Z,37.66
2023-09-11T14:57:22.254Z,37.18
2023-09-11T14:59:48.881Z,37.06
2023-09-11T15:02:15.426Z,36.92
2023-09-11T15:04:49.939Z,36.99
2023-09-11T15:07:19.376Z,36.94
2023-09-11T15:09:47.432Z,36.43
2023-09-11T15:12:14.067Z,36.44
2023-09-11T15:14:40.795Z,36.02
2023-09-11T15:17:07.452Z,36.47
2023-09-11T15:19:34.095Z,36.47
2023-09-11T15:22:01.341Z,36.30
2023-09-11T15:24:27.939Z,36.03
2023-09-11T15:26:54.527Z,35.98
2023-09-11T15:29:21.165Z,36.01
2023-09-11T15:32:03.427Z,36.24
2023-09-11T15:34:35.285Z,36.44
2023-09-11T15:37:01.912Z,36.27
2023-09-11T15:39:30.418Z,36.26
2023-09-11T15:41:56.976Z,36.27
2023-09-11T15:44:23.542Z,36.34
2023-09-11T15:46:50.108Z,36.22
2023-09-11T15:49:16.958Z,36.26
2023-09-11T15:51:43.679Z,36.05
2023-09-11T15:54:10.413Z,35.56
2023-09-11T15:56:37.118Z,35.15
2023-09-11T15:59:05.068Z,35.06
2023-09-11T16:01:31.681Z,35.19
2023-09-11T16:03:58.299Z,35.15
2023-09-11T16:06:24.968Z,34.93
2023-09-11T16:08:52.692Z,34.99
2023-09-11T16:11:19.754Z,34.99
2023-09-11T16:13:46.207Z,35.04
2023-09-11T16:16:12.967Z,35.13
2023-09-11T16:18:39.906Z,35.02
2023-09-11T16:21:06.796Z,34.99
2023-09-11T16:23:38.567Z,34.92
2023-09-11T16:26:05.223Z,35.03
2023-09-11T16:28:31.713Z,34.98
2023-09-11T16:30:58.517Z,34.79
2023-09-11T16:33:25.240Z,34.67
2023-09-11T16:35:52.425Z,34.64
2023-09-11T16:38:18.951Z,34.53
2023-09-11T16:40:45.492Z,34.47
2023-09-11T16:43:11.956Z,34.35
2023-09-11T16:45:38.744Z,34.23
2023-09-11T16:48:06.183Z,34.17
2023-09-11T16:50:33.019Z,34.18
2023-09-11T16:52:59.713Z,34.05
2023-09-11T16:55:26.275Z,33.95
2023-09-11T16:57:52.865Z,33.94
2023-09-11T17:00:21.798Z,33.91
2023-09-11T17:02:48.482Z,33.82
2023-09-11T17:05:15.131Z,33.78
2023-09-11T17:07:41.679Z,33.68
2023-09-11T17:10:09.161Z,33.64
2023-09-11T17:12:40.727Z,33.59
2023-09-11T17:15:08.578Z,33.37
2023-09-11T17:17:35.233Z,33.13
2023-09-11T17:20:01.744Z,33.17
2023-09-11T17:22:29.902Z,33.11
2023-09-11T17:24:57.378Z,32.91
2023-09-11T17:27:25.127Z,32.87
2023-09-11T17:29:51.843Z,32.74
2023-09-11T17:32:18.435Z,32.65
2023-09-11T17:34:45.444Z,32.51
2023-09-11T17:37:11.966Z,32.41
2023-09-11T17:39:38.475Z,32.51
2023-09-11T17:42:05.534Z,32.60
2023-09-11T17:44:34.650Z,32.72
2023-09-11T17:47:01.123Z,32.73
2023-09-11T17:49:27.818Z,32.67
2023-09-11T17:51:54.385Z,32.58
2023-09-11T17:54:20.977Z,32.59
2023-09-11T17:56:47.664Z,32.58
2023-09-11T17:59:14.222Z,32.42
2023-09-11T18:01:41.378Z,32.35
2023-09-11T18:04:09.702Z,32.32
2023-09-11T18:06:36.427Z,32.19
2023-09-11T18:09:03.043Z,32.19
2023-09-11T18:11:29.975Z,32.17
2023-09-11T18:13:57.611Z,32.19
2023-09-11T18:16:24.132Z,32.14
2023-09-11T18:18:50.747Z,32.13
2023-09-11T18:21:17.510Z,32.07
2023-09-11T18:23:44.092Z,31.92
2023-09-11T18:26:10.630Z,31.53
2023-09-11T18:28:37.439Z,30.84
2023-09-11T18:31:04.216Z,30.89
2023-09-11T18:33:30.998Z,30.55
2023-09-11T18:36:02.853Z,30.29
2023-09-11T18:38:32.282Z,30.20
2023-09-11T18:40:58.882Z,30.12
2023-09-11T18:43:26.366Z,29.85
2023-09-11T18:45:53.150Z,29.64
2023-09-11T18:48:19.945Z,29.42
2023-09-11T18:50:46.717Z,29.30
2023-09-11T18:53:13.216Z,29.21
2023-09-11T18:55:39.698Z,29.23
2023-09-11T18:58:06.280Z,29.30
2023-09-11T19:00:32.921Z,29.47
2023-09-11T19:02:59.666Z,29.91
2023-09-11T19:05:26.249Z,30.06
2023-09-11T19:07:52.744Z,29.82
2023-09-11T19:10:19.342Z,29.72
2023-09-11T19:12:45.945Z,29.54
2023-09-11T19:15:12.748Z,29.61
2023-09-11T19:17:39.767Z,29.52
2023-09-11T19:20:07.271Z,29.42
2023-09-11T19:22:33.887Z,29.20
2023-09-11T19:25:01.141Z,29.16
2023-09-11T19:27:27.888Z,29.34
2023-09-11T19:29:54.827Z,29.23
2023-09-11T19:32:21.459Z,29.05
2023-09-11T19:34:48.552Z,28.76
2023-09-11T19:37:15.178Z,28.70
2023-09-11T19:39:41.781Z,28.70
2023-09-11T19:42:13.475Z,28.52
2023-09-11T19:44:40.412Z,28.52
2023-09-11T19:47:07.126Z,28.40
2023-09-11T19:49:35.908Z,28.23
2023-09-11T19:52:04.313Z,28.26
2023-09-11T19:54:31.556Z,28.06
2023-09-11T19:57:00.182Z,27.96
2023-09-11T19:59:30.752Z,27.94
2023-09-11T20:01:57.661Z,27.99
2023-09-11T20:04:25.051Z,28.02
2023-09-11T20:06:52.459Z,28.01
2023-09-11T20:09:19.431Z,28.17
2023-09-11T20:11:45.964Z,28.19
2023-09-11T20:14:12.563Z,28.15
2023-09-11T20:16:39.121Z,28.14
2023-09-11T20:19:05.676Z,28.13
2023-09-11T20:21:32.238Z,28.33
2023-09-11T20:23:58.845Z,28.02
2023-09-11T20:26:25.364Z,28.06
2023-09-11T20:28:51.870Z,27.90
2023-09-11T20:31:18.450Z,27.71
2023-09-11T20:33:45.849Z,27.75
2023-09-11T20:36:17.291Z,27.94
2023-09-11T20:38:50.142Z,27.96
2023-09-11T20:41:16.818Z,27.99
2023-09-11T20:43:46.717Z,27.76
2023-09-11T20:46:14.267Z,27.50
2023-09-11T20:48:41.824Z,27.41
2023-09-11T20:51:12.575Z,27.34
2023-09-11T20:53:39.191Z,27.13
2023-09-11T20:56:07.451Z,26.99
2023-09-11T20:58:34.538Z,27.05
2023-09-11T21:01:05.647Z,26.97
2023-09-11T21:03:33.084Z,26.78
2023-09-11T21:06:00.482Z,26.64
2023-09-11T21:08:27.236Z,26.55
2023-09-11T21:10:54.212Z,26.46
2023-09-11T21:13:24.506Z,26.40
2023-09-11T21:15:51.628Z,26.50
2023-09-11T21:18:18.665Z,26.48
2023-09-11T21:20:45.245Z,26.44
2023-09-11T21:23:11.774Z,26.49
2023-09-11T21:25:38.381Z,26.67
2023-09-11T21:28:05.350Z,26.99
2023-09-11T21:30:32.621Z,26.93
2023-09-11T21:32:59.318Z,26.99
2023-09-11T21:35:26.094Z,27.14
2023-09-11T21:37:52.598Z,27.18
2023-09-11T21:40:19.331Z,27.14
2023-09-11T21:42:45.880Z,26.81
2023-09-11T21:45:12.537Z,26.64
2023-09-11T21:47:39.119Z,26.49
2023-09-11T21:50:05.982Z,26.54
2023-09-11T21:52:32.485Z,26.70
2023-09-11T21:54:58.963Z,26.68
2023-09-11T21:57:25.598Z,26.58
2023-09-11T21:59:52.181Z,26.64
2023-09-11T22:02:19.049Z,26.76
2023-09-11T22:04:51.815Z,26.74
2023-09-11T22:07:18.435Z,26.67
2023-09-11T22:09:44.944Z,26.68
2023-09-11T22:12:13.205Z,26.71
2023-09-11T22:14:40.267Z,26.46
2023-09-11T22:17:07.674Z,26.39
2023-09-11T22:19:35.298Z,26.30
2023-09-11T22:22:01.823Z,26.45
2023-09-11T22:24:28.432Z,26.51
2023-09-11T22:26:57.371Z,26.54
2023-09-11T22:29:25.529Z,26.21
2023-09-11T22:31:52.375Z,26.24
2023-09-11T22:34:19.104Z,26.23
2023-09-11T22:36:45.731Z,26.43
2023-09-11T22:39:12.301Z,26.28
2023-09-11T22:41:38.855Z,26.19
2023-09-11T22:44:05.680Z,26.07
2023-09-11T22:46:32.268Z,25.75
2023-09-11T22:48:58.868Z,25.60
2023-09-11T22:51:25.425Z,25.91
2023-09-11T22:53:51.991Z,26.06
2023-09-11T22:56:18.500Z,26.04
2023-09-11T22:58:45.308Z,26.23
2023-09-11T23:01:27.740Z,26.27
2023-09-11T23:03:54.693Z,26.02
2023-09-11T23:06:21.401Z,26.03
2023-09-11T23:08:47.993Z,26.08
2023-09-11T23:11:14.530Z,26.14
2023-09-11T23:13:41.071Z,26.18
2023-09-11T23:16:07.711Z,26.17
2023-09-11T23:18:34.261Z,26.12
2023-09-11T23:21:00.871Z,26.07
2023-09-11T23:23:37.068Z,25.89
2023-09-11T23:26:05.191Z,25.97
2023-09-11T23:28:31.694Z,25.89
2023-09-11T23:30:59.715Z,25.95
2023-09-11T23:33:27.347Z,26.02
2023-09-11T23:35:54.434Z,25.96
2023-09-11T23:38:21.038Z,25.79
2023-09-11T23:40:47.547Z,25.79
2023-09-11T23:43:14.042Z,25.65
2023-09-11T23:45:40.709Z,25.53
2023-09-11T23:48:07.519Z,25.62
2023-09-11T23:50:34.157Z,25.66
2023-09-11T23:53:00.688Z,25.51
2023-09-11T23:55:29.180Z,25.39
2023-09-11T23:57:55.818Z,25.43
